sensor_id;sensor_type;location;lat;lon;timestamp;temperature;humidity
1948;DHT22;974;52.400;9.818;2022-09-12T00:00:45;12.50;99.90
1948;DHT22;974;52.400;9.818;2022-09-12T00:03:10;12.60;99.90
1948;DHT22;974;52.400;9.818;2022-09-12T00:05:43;12.60;99.90
1948;DHT22;974;52.400;9.818;2022-09-12T00:08:10;12.50;99.90
1948;DHT22;974;52.400;9.818;2022-09-12T00:10:42;12.40;99.90
1948;DHT22;974;52.400;9.818;2022-09-12T00:13:09;12.50;99.90
1948;DHT22;974;52.400;9.818;2022-09-12T00:15:43;12.60;99.90
1948;DHT22;974;52.400;9.818;2022-09-12T00:18:13;12.60;99.90
1948;DHT22;974;52.400;9.818;2022-09-12T00:20:46;12.60;99.90
1948;DHT22;974;52.400;9.818;2022-09-12T00:23:12;12.50;99.90
1948;DHT22;974;52.400;9.818;2022-09-12T00:25:45;12.40;99.90
1948;DHT22;974;52.400;9.818;2022-09-12T00:28:12;12.50;99.90
1948;DHT22;974;52.400;9.818;2022-09-12T00:30:42;12.60;99.90
1948;DHT22;974;52.400;9.818;2022-09-12T00:33:09;12.50;99.90
1948;DHT22;974;52.400;9.818;2022-09-12T00:35:43;12.40;99.90
1948;DHT22;974;52.400;9.818;2022-09-12T00:38:10;12.20;99.90
1948;DHT22;974;52.400;9.818;2022-09-12T00:40:36;12.40;99.90
1948;DHT22;974;52.400;9.818;2022-09-12T00:43:01;12.40;99.90
1948;DHT22;974;52.400;9.818;2022-09-12T00:45:28;12.40;99.90
1948;DHT22;974;52.400;9.818;2022-09-12T00:47:55;12.50;99.90
1948;DHT22;974;52.400;9.818;2022-09-12T00:50:23;12.30;99.90
1948;DHT22;974;52.400;9.818;2022-09-12T00:52:52;12.30;99.90
1948;DHT22;974;52.400;9.818;2022-09-12T00:55:24;12.30;99.90
1948;DHT22;974;52.400;9.818;2022-09-12T00:57:55;12.10;99.90
1948;DHT22;974;52.400;9.818;2022-09-12T01:00:24;12.20;99.90
1948;DHT22;974;52.400;9.818;2022-09-12T01:02:56;12.20;99.90
1948;DHT22;974;52.400;9.818;2022-09-12T01:05:23;12.00;99.90
1948;DHT22;974;52.400;9.818;2022-09-12T01:07:51;12.10;99.90
1948;DHT22;974;52.400;9.818;2022-09-12T01:10:18;11.90;99.90
1948;DHT22;974;52.400;9.818;2022-09-12T01:12:44;12.10;99.90
1948;DHT22;974;52.400;9.818;2022-09-12T01:15:11;12.10;99.90
1948;DHT22;974;52.400;9.818;2022-09-12T01:17:51;11.90;99.90
1948;DHT22;974;52.400;9.818;2022-09-12T01:23:10;12.10;99.90
1948;DHT22;974;52.400;9.818;2022-09-12T01:28:50;11.90;99.90
1948;DHT22;974;52.400;9.818;2022-09-12T01:31:36;11.90;99.90
1948;DHT22;974;52.400;9.818;2022-09-12T01:34:26;11.90;99.90
1948;DHT22;974;52.400;9.818;2022-09-12T01:37:28;11.90;99.90
1948;DHT22;974;52.400;9.818;2022-09-12T01:40:10;12.00;99.90
1948;DHT22;974;52.400;9.818;2022-09-12T01:42:48;12.00;99.90
1948;DHT22;974;52.400;9.818;2022-09-12T01:45:23;11.80;99.90
1948;DHT22;974;52.400;9.818;2022-09-12T01:47:58;11.70;99.90
1948;DHT22;974;52.400;9.818;2022-09-12T01:50:34;11.60;99.90
1948;DHT22;974;52.400;9.818;2022-09-12T01:53:12;11.70;99.90
1948;DHT22;974;52.400;9.818;2022-09-12T01:55:44;11.70;99.90
1948;DHT22;974;52.400;9.818;2022-09-12T01:58:15;11.80;99.90
1948;DHT22;974;52.400;9.818;2022-09-12T02:03:32;11.90;99.90
1948;DHT22;974;52.400;9.818;2022-09-12T02:06:16;11.80;99.90
1948;DHT22;974;52.400;9.818;2022-09-12T02:09:02;11.90;99.90
1948;DHT22;974;52.400;9.818;2022-09-12T02:11:31;11.70;99.90
1948;DHT22;974;52.400;9.818;2022-09-12T02:14:03;11.80;99.90
1948;DHT22;974;52.400;9.818;2022-09-12T02:16:39;11.80;99.90
1948;DHT22;974;52.400;9.818;2022-09-12T02:19:14;11.90;99.90
1948;DHT22;974;52.400;9.818;2022-09-12T02:21:45;11.90;99.90
1948;DHT22;974;52.400;9.818;2022-09-12T02:24:13;11.80;99.90
1948;DHT22;974;52.400;9.818;2022-09-12T02:27:15;11.70;99.90
1948;DHT22;974;52.400;9.818;2022-09-12T02:29:43;11.70;99.90
1948;DHT22;974;52.400;9.818;2022-09-12T02:32:27;11.70;99.90
1948;DHT22;974;52.400;9.818;2022-09-12T02:35:06;11.80;99.90
1948;DHT22;974;52.400;9.818;2022-09-12T02:38:03;11.70;99.90
1948;DHT22;974;52.400;9.818;2022-09-12T02:40:30;11.70;99.90
1948;DHT22;974;52.400;9.818;2022-09-12T02:42:57;11.80;99.90
1948;DHT22;974;52.400;9.818;2022-09-12T02:45:22;11.60;99.90
1948;DHT22;974;52.400;9.818;2022-09-12T02:47:53;11.60;99.90
1948;DHT22;974;52.400;9.818;2022-09-12T02:50:21;11.60;99.90
1948;DHT22;974;52.400;9.818;2022-09-12T02:52:47;11.70;99.90
1948;DHT22;974;52.400;9.818;2022-09-12T02:55:13;11.50;99.90
1948;DHT22;974;52.400;9.818;2022-09-12T02:57:40;11.50;99.90
1948;DHT22;974;52.400;9.818;2022-09-12T03:00:06;11.40;99.90
1948;DHT22;974;52.400;9.818;2022-09-12T03:05:33;11.50;99.90
1948;DHT22;974;52.400;9.818;2022-09-12T03:08:12;11.40;99.90
1948;DHT22;974;52.400;9.818;2022-09-12T03:11:04;11.50;99.90
1948;DHT22;974;52.400;9.818;2022-09-12T03:24:57;11.20;99.90
1948;DHT22;974;52.400;9.818;2022-09-12T03:27:33;11.20;99.90
1948;DHT22;974;52.400;9.818;2022-09-12T03:30:00;11.20;99.90
1948;DHT22;974;52.400;9.818;2022-09-12T03:32:46;11.20;99.90
1948;DHT22;974;52.400;9.818;2022-09-12T03:35:13;11.20;99.90
1948;DHT22;974;52.400;9.818;2022-09-12T03:37:39;11.20;99.90
1948;DHT22;974;52.400;9.818;2022-09-12T03:40:05;11.30;99.90
1948;DHT22;974;52.400;9.818;2022-09-12T03:42:31;11.30;99.90
1948;DHT22;974;52.400;9.818;2022-09-12T03:44:57;11.30;99.90
1948;DHT22;974;52.400;9.818;2022-09-12T03:47:22;11.30;99.90
1948;DHT22;974;52.400;9.818;2022-09-12T03:49:48;11.20;99.90
1948;DHT22;974;52.400;9.818;2022-09-12T03:52:13;11.10;99.90
1948;DHT22;974;52.400;9.818;2022-09-12T03:54:39;11.10;99.90
1948;DHT22;974;52.400;9.818;2022-09-12T03:57:05;11.20;99.90
1948;DHT22;974;52.400;9.818;2022-09-12T03:59:31;11.20;99.90
1948;DHT22;974;52.400;9.818;2022-09-12T04:01:56;11.00;99.90
1948;DHT22;974;52.400;9.818;2022-09-12T04:04:22;11.10;99.90
1948;DHT22;974;52.400;9.818;2022-09-12T04:06:47;11.10;99.90
1948;DHT22;974;52.400;9.818;2022-09-12T04:09:13;11.20;99.90
1948;DHT22;974;52.400;9.818;2022-09-12T04:11:38;11.30;99.90
1948;DHT22;974;52.400;9.818;2022-09-12T04:14:04;11.20;99.90
1948;DHT22;974;52.400;9.818;2022-09-12T04:16:30;11.10;99.90
1948;DHT22;974;52.400;9.818;2022-09-12T04:18:56;11.10;99.90
1948;DHT22;974;52.400;9.818;2022-09-12T04:21:21;11.00;99.90
1948;DHT22;974;52.400;9.818;2022-09-12T04:23:47;11.00;99.90
1948;DHT22;974;52.400;9.818;2022-09-12T04:26:13;11.10;99.90
1948;DHT22;974;52.400;9.818;2022-09-12T04:28:40;11.00;99.90
1948;DHT22;974;52.400;9.818;2022-09-12T04:31:08;11.00;99.90
1948;DHT22;974;52.400;9.818;2022-09-12T04:33:34;11.10;99.90
1948;DHT22;974;52.400;9.818;2022-09-12T04:36:05;11.10;99.90
1948;DHT22;974;52.400;9.818;2022-09-12T04:38:32;11.00;99.90
1948;DHT22;974;52.400;9.818;2022-09-12T04:40:58;10.90;99.90
1948;DHT22;974;52.400;9.818;2022-09-12T04:43:24;10.80;99.90
1948;DHT22;974;52.400;9.818;2022-09-12T04:45:49;10.90;99.90
1948;DHT22;974;52.400;9.818;2022-09-12T04:48:16;10.90;99.90
1948;DHT22;974;52.400;9.818;2022-09-12T04:50:41;11.00;99.90
1948;DHT22;974;52.400;9.818;2022-09-12T04:53:07;11.00;99.90
1948;DHT22;974;52.400;9.818;2022-09-12T04:55:33;11.10;99.90
1948;DHT22;974;52.400;9.818;2022-09-12T04:58:00;11.00;99.90
1948;DHT22;974;52.400;9.818;2022-09-12T05:00:26;11.00;99.90
1948;DHT22;974;52.400;9.818;2022-09-12T05:02:51;11.00;99.90
1948;DHT22;974;52.400;9.818;2022-09-12T05:05:17;11.00;99.90
1948;DHT22;974;52.400;9.818;2022-09-12T05:07:42;11.00;99.90
1948;DHT22;974;52.400;9.818;2022-09-12T05:10:08;11.00;99.90
1948;DHT22;974;52.400;9.818;2022-09-12T05:12:34;11.10;99.90
1948;DHT22;974;52.400;9.818;2022-09-12T05:15:00;11.10;99.90
1948;DHT22;974;52.400;9.818;2022-09-12T05:17:28;11.00;99.90
1948;DHT22;974;52.400;9.818;2022-09-12T05:19:54;11.00;99.90
1948;DHT22;974;52.400;9.818;2022-09-12T05:22:20;11.00;99.90
1948;DHT22;974;52.400;9.818;2022-09-12T05:24:45;11.00;99.90
1948;DHT22;974;52.400;9.818;2022-09-12T05:27:12;11.10;99.90
1948;DHT22;974;52.400;9.818;2022-09-12T05:29:38;11.10;99.90
1948;DHT22;974;52.400;9.818;2022-09-12T05:32:03;11.10;99.90
1948;DHT22;974;52.400;9.818;2022-09-12T05:34:29;11.10;99.90
1948;DHT22;974;52.400;9.818;2022-09-12T05:36:54;11.20;99.90
1948;DHT22;974;52.400;9.818;2022-09-12T05:39:20;11.20;99.90
1948;DHT22;974;52.400;9.818;2022-09-12T05:41:46;11.30;99.90
1948;DHT22;974;52.400;9.818;2022-09-12T05:44:13;11.30;99.90
1948;DHT22;974;52.400;9.818;2022-09-12T05:46:43;11.40;99.90
1948;DHT22;974;52.400;9.818;2022-09-12T05:49:12;11.50;99.90
1948;DHT22;974;52.400;9.818;2022-09-12T05:51:40;11.50;99.90
1948;DHT22;974;52.400;9.818;2022-09-12T05:54:08;11.60;99.90
1948;DHT22;974;52.400;9.818;2022-09-12T05:56:37;11.60;99.90
1948;DHT22;974;52.400;9.818;2022-09-12T05:59:05;11.60;99.90
1948;DHT22;974;52.400;9.818;2022-09-12T06:01:32;11.70;99.90
1948;DHT22;974;52.400;9.818;2022-09-12T06:04:00;11.80;99.90
1948;DHT22;974;52.400;9.818;2022-09-12T06:06:26;11.80;99.90
1948;DHT22;974;52.400;9.818;2022-09-12T06:08:56;11.90;99.90
1948;DHT22;974;52.400;9.818;2022-09-12T06:11:24;12.00;99.90
1948;DHT22;974;52.400;9.818;2022-09-12T06:13:53;12.00;99.90
1948;DHT22;974;52.400;9.818;2022-09-12T06:16:21;12.10;99.90
1948;DHT22;974;52.400;9.818;2022-09-12T06:18:49;12.10;99.90
1948;DHT22;974;52.400;9.818;2022-09-12T06:21:15;12.20;99.90
1948;DHT22;974;52.400;9.818;2022-09-12T06:23:41;12.30;99.90
1948;DHT22;974;52.400;9.818;2022-09-12T06:26:08;12.40;99.90
1948;DHT22;974;52.400;9.818;2022-09-12T06:28:35;12.50;99.90
1948;DHT22;974;52.400;9.818;2022-09-12T06:33:33;12.60;99.90
1948;DHT22;974;52.400;9.818;2022-09-12T06:36:08;12.70;99.90
1948;DHT22;974;52.400;9.818;2022-09-12T06:38:34;12.80;99.90
1948;DHT22;974;52.400;9.818;2022-09-12T06:41:03;12.90;99.90
1948;DHT22;974;52.400;9.818;2022-09-12T06:43:30;13.00;99.90
1948;DHT22;974;52.400;9.818;2022-09-12T06:45:56;13.10;99.90
1948;DHT22;974;52.400;9.818;2022-09-12T06:48:21;13.20;99.90
1948;DHT22;974;52.400;9.818;2022-09-12T06:51:02;13.20;99.90
1948;DHT22;974;52.400;9.818;2022-09-12T06:53:29;13.30;99.90
1948;DHT22;974;52.400;9.818;2022-09-12T06:56:16;13.30;99.90
1948;DHT22;974;52.400;9.818;2022-09-12T06:58:44;13.40;99.90
1948;DHT22;974;52.400;9.818;2022-09-12T07:01:16;13.40;99.90
1948;DHT22;974;52.400;9.818;2022-09-12T07:03:45;13.50;99.90
1948;DHT22;974;52.400;9.818;2022-09-12T07:06:15;13.60;99.90
1948;DHT22;974;52.400;9.818;2022-09-12T07:08:41;13.60;99.90
1948;DHT22;974;52.400;9.818;2022-09-12T07:11:21;13.70;99.90
1948;DHT22;974;52.400;9.818;2022-09-12T07:13:49;13.80;99.90
1948;DHT22;974;52.400;9.818;2022-09-12T07:16:15;13.80;99.90
1948;DHT22;974;52.400;9.818;2022-09-12T07:18:41;13.90;99.90
1948;DHT22;974;52.400;9.818;2022-09-12T07:21:10;14.00;99.90
1948;DHT22;974;52.400;9.818;2022-09-12T07:23:36;14.00;99.90
1948;DHT22;974;52.400;9.818;2022-09-12T07:26:03;14.10;99.90
1948;DHT22;974;52.400;9.818;2022-09-12T07:28:31;14.20;99.90
1948;DHT22;974;52.400;9.818;2022-09-12T07:31:03;14.20;99.90
1948;DHT22;974;52.400;9.818;2022-09-12T07:33:29;14.30;99.90
1948;DHT22;974;52.400;9.818;2022-09-12T07:35:54;14.40;99.90
1948;DHT22;974;52.400;9.818;2022-09-12T07:38:24;14.40;99.90
1948;DHT22;974;52.400;9.818;2022-09-12T07:40:50;14.40;99.90
1948;DHT22;974;52.400;9.818;2022-09-12T07:43:15;14.50;99.90
1948;DHT22;974;52.400;9.818;2022-09-12T07:45:41;14.50;99.90
1948;DHT22;974;52.400;9.818;2022-09-12T07:48:07;14.60;99.90
1948;DHT22;974;52.400;9.818;2022-09-12T07:50:34;14.70;99.90
1948;DHT22;974;52.400;9.818;2022-09-12T07:53:00;14.70;99.90
1948;DHT22;974;52.400;9.818;2022-09-12T07:55:27;14.80;99.90
1948;DHT22;974;52.400;9.818;2022-09-12T07:57:52;14.90;99.90
1948;DHT22;974;52.400;9.818;2022-09-12T08:00:18;15.00;99.90
1948;DHT22;974;52.400;9.818;2022-09-12T08:02:44;15.10;99.90
1948;DHT22;974;52.400;9.818;2022-09-12T08:05:10;15.20;99.90
1948;DHT22;974;52.400;9.818;2022-09-12T08:07:35;15.30;99.90
1948;DHT22;974;52.400;9.818;2022-09-12T08:10:01;15.40;99.90
1948;DHT22;974;52.400;9.818;2022-09-12T08:12:28;15.50;99.90
1948;DHT22;974;52.400;9.818;2022-09-12T08:14:53;15.50;99.90
1948;DHT22;974;52.400;9.818;2022-09-12T08:17:19;15.60;99.90
1948;DHT22;974;52.400;9.818;2022-09-12T08:19:45;15.70;99.90
1948;DHT22;974;52.400;9.818;2022-09-12T08:22:10;15.80;99.90
1948;DHT22;974;52.400;9.818;2022-09-12T08:24:36;15.90;99.90
1948;DHT22;974;52.400;9.818;2022-09-12T08:27:04;16.00;99.90
1948;DHT22;974;52.400;9.818;2022-09-12T08:29:29;16.00;99.90
1948;DHT22;974;52.400;9.818;2022-09-12T08:31:55;16.10;99.90
1948;DHT22;974;52.400;9.818;2022-09-12T08:34:21;16.20;99.90
1948;DHT22;974;52.400;9.818;2022-09-12T08:36:46;16.30;99.90
1948;DHT22;974;52.400;9.818;2022-09-12T08:39:12;16.40;99.90
1948;DHT22;974;52.400;9.818;2022-09-12T08:41:43;16.50;99.90
1948;DHT22;974;52.400;9.818;2022-09-12T08:44:29;16.60;99.90
1948;DHT22;974;52.400;9.818;2022-09-12T08:47:31;16.70;99.90
1948;DHT22;974;52.400;9.818;2022-09-12T08:55:35;17.00;99.90
1948;DHT22;974;52.400;9.818;2022-09-12T08:58:16;17.10;99.90
1948;DHT22;974;52.400;9.818;2022-09-12T09:00:52;17.20;99.90
1948;DHT22;974;52.400;9.818;2022-09-12T09:03:59;17.40;99.90
1948;DHT22;974;52.400;9.818;2022-09-12T09:12:33;17.70;99.90
1948;DHT22;974;52.400;9.818;2022-09-12T09:15:23;17.90;99.90
1948;DHT22;974;52.400;9.818;2022-09-12T09:17:58;18.00;99.90
1948;DHT22;974;52.400;9.818;2022-09-12T09:20:50;18.20;99.90
1948;DHT22;974;52.400;9.818;2022-09-12T09:23:37;18.30;99.90
1948;DHT22;974;52.400;9.818;2022-09-12T09:28:49;18.50;99.90
1948;DHT22;974;52.400;9.818;2022-09-12T09:31:20;18.60;99.90
1948;DHT22;974;52.400;9.818;2022-09-12T09:33:49;18.70;99.90
1948;DHT22;974;52.400;9.818;2022-09-12T09:39:00;18.90;99.90
1948;DHT22;974;52.400;9.818;2022-09-12T09:43:59;19.10;99.90
1948;DHT22;974;52.400;9.818;2022-09-12T09:46:26;19.10;99.90
1948;DHT22;974;52.400;9.818;2022-09-12T09:48:52;19.20;99.90
1948;DHT22;974;52.400;9.818;2022-09-12T09:51:28;19.30;99.90
1948;DHT22;974;52.400;9.818;2022-09-12T09:54:12;19.40;99.90
1948;DHT22;974;52.400;9.818;2022-09-12T09:56:41;19.50;99.90
1948;DHT22;974;52.400;9.818;2022-09-12T09:59:27;19.50;99.90
1948;DHT22;974;52.400;9.818;2022-09-12T10:01:58;19.50;99.90
1948;DHT22;974;52.400;9.818;2022-09-12T10:04:33;19.70;99.90
1948;DHT22;974;52.400;9.818;2022-09-12T10:07:00;19.70;99.90
1948;DHT22;974;52.400;9.818;2022-09-12T10:09:28;19.80;99.90
1948;DHT22;974;52.400;9.818;2022-09-12T10:11:57;19.90;99.90
1948;DHT22;974;52.400;9.818;2022-09-12T10:17:21;20.20;99.90
1948;DHT22;974;52.400;9.818;2022-09-12T10:19:47;20.30;99.90
1948;DHT22;974;52.400;9.818;2022-09-12T10:22:21;20.40;99.90
1948;DHT22;974;52.400;9.818;2022-09-12T10:24:50;20.40;99.90
1948;DHT22;974;52.400;9.818;2022-09-12T10:27:31;20.50;99.90
1948;DHT22;974;52.400;9.818;2022-09-12T10:30:14;20.60;99.90
1948;DHT22;974;52.400;9.818;2022-09-12T10:32:43;20.70;99.90
1948;DHT22;974;52.400;9.818;2022-09-12T10:35:19;20.80;99.90
1948;DHT22;974;52.400;9.818;2022-09-12T10:38:03;20.90;99.90
1948;DHT22;974;52.400;9.818;2022-09-12T10:40:29;20.90;99.90
1948;DHT22;974;52.400;9.818;2022-09-12T10:42:58;21.00;99.90
1948;DHT22;974;52.400;9.818;2022-09-12T10:45:29;21.10;99.90
1948;DHT22;974;52.400;9.818;2022-09-12T10:48:00;21.10;99.90
1948;DHT22;974;52.400;9.818;2022-09-12T10:50:40;21.10;99.90
1948;DHT22;974;52.400;9.818;2022-09-12T10:53:20;21.20;99.90
1948;DHT22;974;52.400;9.818;2022-09-12T11:01:37;21.30;99.90
1948;DHT22;974;52.400;9.818;2022-09-12T11:04:31;21.40;99.90
1948;DHT22;974;52.400;9.818;2022-09-12T11:10:23;21.50;99.90
1948;DHT22;974;52.400;9.818;2022-09-12T11:13:21;21.50;99.90
1948;DHT22;974;52.400;9.818;2022-09-12T11:16:08;21.50;99.90
1948;DHT22;974;52.400;9.818;2022-09-12T11:19:11;21.70;99.90
1948;DHT22;974;52.400;9.818;2022-09-12T11:30:13;22.20;99.90
1948;DHT22;974;52.400;9.818;2022-09-12T11:35:42;22.30;99.90
1948;DHT22;974;52.400;9.818;2022-09-12T11:38:17;22.50;99.90
1948;DHT22;974;52.400;9.818;2022-09-12T11:40:53;22.70;99.90
1948;DHT22;974;52.400;9.818;2022-09-12T11:43:34;22.90;99.90
1948;DHT22;974;52.400;9.818;2022-09-12T11:46:10;23.20;99.90
1948;DHT22;974;52.400;9.818;2022-09-12T11:48:52;23.20;99.90
1948;DHT22;974;52.400;9.818;2022-09-12T11:51:28;23.60;99.90
1948;DHT22;974;52.400;9.818;2022-09-12T11:54:36;24.90;99.90
1948;DHT22;974;52.400;9.818;2022-09-12T11:59:52;25.30;99.90
1948;DHT22;974;52.400;9.818;2022-09-12T12:02:28;25.40;99.90
1948;DHT22;974;52.400;9.818;2022-09-12T12:05:20;26.50;99.90
1948;DHT22;974;52.400;9.818;2022-09-12T12:08:01;27.80;99.90
1948;DHT22;974;52.400;9.818;2022-09-12T12:10:34;28.60;99.90
1948;DHT22;974;52.400;9.818;2022-09-12T12:13:08;29.40;99.90
1948;DHT22;974;52.400;9.818;2022-09-12T12:15:46;29.50;98.00
1948;DHT22;974;52.400;9.818;2022-09-12T12:18:22;28.70;95.00
1948;DHT22;974;52.400;9.818;2022-09-12T12:20:49;28.00;95.30
1948;DHT22;974;52.400;9.818;2022-09-12T12:25:53;26.50;95.00
1948;DHT22;974;52.400;9.818;2022-09-12T12:31:17;28.10;94.40
1948;DHT22;974;52.400;9.818;2022-09-12T12:36:09;30.80;91.80
1948;DHT22;974;52.400;9.818;2022-09-12T12:38:39;32.10;87.30
1948;DHT22;974;52.400;9.818;2022-09-12T12:43:44;32.20;77.60
1948;DHT22;974;52.400;9.818;2022-09-12T12:46:11;30.60;76.00
1948;DHT22;974;52.400;9.818;2022-09-12T12:57:22;28.70;79.10
1948;DHT22;974;52.400;9.818;2022-09-12T12:59:55;28.00;81.60
1948;DHT22;974;52.400;9.818;2022-09-12T13:02:27;28.30;80.20
1948;DHT22;974;52.400;9.818;2022-09-12T13:04:55;28.50;80.40
1948;DHT22;974;52.400;9.818;2022-09-12T13:07:34;28.60;79.70
1948;DHT22;974;52.400;9.818;2022-09-12T13:10:01;28.40;78.90
1948;DHT22;974;52.400;9.818;2022-09-12T13:12:31;28.60;79.30
1948;DHT22;974;52.400;9.818;2022-09-12T13:14:59;27.60;81.10
1948;DHT22;974;52.400;9.818;2022-09-12T13:17:29;27.90;81.50
1948;DHT22;974;52.400;9.818;2022-09-12T13:20:13;27.80;81.20
1948;DHT22;974;52.400;9.818;2022-09-12T13:22:46;27.00;82.30
1948;DHT22;974;52.400;9.818;2022-09-12T13:25:33;26.50;84.50
1948;DHT22;974;52.400;9.818;2022-09-12T13:28:15;26.50;85.80
1948;DHT22;974;52.400;9.818;2022-09-12T13:30:53;26.10;88.10
1948;DHT22;974;52.400;9.818;2022-09-12T13:36:12;25.40;88.50
1948;DHT22;974;52.400;9.818;2022-09-12T13:39:04;25.20;89.20
1948;DHT22;974;52.400;9.818;2022-09-12T13:41:56;24.60;91.40
1948;DHT22;974;52.400;9.818;2022-09-12T13:44:27;24.20;91.80
1948;DHT22;974;52.400;9.818;2022-09-12T13:46:54;24.20;91.70
1948;DHT22;974;52.400;9.818;2022-09-12T13:49:36;24.20;92.50
1948;DHT22;974;52.400;9.818;2022-09-12T13:52:19;24.30;92.30
1948;DHT22;974;52.400;9.818;2022-09-12T13:54:48;24.10;92.20
1948;DHT22;974;52.400;9.818;2022-09-12T13:57:29;24.10;93.00
1948;DHT22;974;52.400;9.818;2022-09-12T13:59:56;24.20;92.40
1948;DHT22;974;52.400;9.818;2022-09-12T14:02:24;24.30;93.60
1948;DHT22;974;52.400;9.818;2022-09-12T14:04:51;24.40;93.30
1948;DHT22;974;52.400;9.818;2022-09-12T14:07:50;24.40;92.40
1948;DHT22;974;52.400;9.818;2022-09-12T14:10:22;24.20;93.10
1948;DHT22;974;52.400;9.818;2022-09-12T14:12:50;24.10;92.30
1948;DHT22;974;52.400;9.818;2022-09-12T14:15:19;23.90;92.40
1948;DHT22;974;52.400;9.818;2022-09-12T14:17:50;23.60;93.00
1948;DHT22;974;52.400;9.818;2022-09-12T14:20:17;23.50;93.50
1948;DHT22;974;52.400;9.818;2022-09-12T14:22:44;23.40;95.20
1948;DHT22;974;52.400;9.818;2022-09-12T14:25:19;23.40;95.10
1948;DHT22;974;52.400;9.818;2022-09-12T14:27:49;23.40;94.50
1948;DHT22;974;52.400;9.818;2022-09-12T14:35:36;23.20;94.30
1948;DHT22;974;52.400;9.818;2022-09-12T14:38:07;23.20;93.70
1948;DHT22;974;52.400;9.818;2022-09-12T14:40:45;23.10;93.60
1948;DHT22;974;52.400;9.818;2022-09-12T14:43:31;23.10;93.70
1948;DHT22;974;52.400;9.818;2022-09-12T14:46:04;23.00;93.40
1948;DHT22;974;52.400;9.818;2022-09-12T14:48:33;22.90;93.20
1948;DHT22;974;52.400;9.818;2022-09-12T14:51:00;22.90;94.10
1948;DHT22;974;52.400;9.818;2022-09-12T14:53:32;22.90;94.00
1948;DHT22;974;52.400;9.818;2022-09-12T14:56:08;22.90;93.20
1948;DHT22;974;52.400;9.818;2022-09-12T14:58:35;22.80;93.50
1948;DHT22;974;52.400;9.818;2022-09-12T15:01:20;22.80;93.50
1948;DHT22;974;52.400;9.818;2022-09-12T15:06:31;22.80;93.70
1948;DHT22;974;52.400;9.818;2022-09-12T15:09:01;22.90;94.30
1948;DHT22;974;52.400;9.818;2022-09-12T15:11:27;23.00;94.70
1948;DHT22;974;52.400;9.818;2022-09-12T15:13:53;22.90;94.20
1948;DHT22;974;52.400;9.818;2022-09-12T15:16:19;22.90;94.30
1948;DHT22;974;52.400;9.818;2022-09-12T15:18:45;22.90;94.90
1948;DHT22;974;52.400;9.818;2022-09-12T15:21:15;22.90;94.30
1948;DHT22;974;52.400;9.818;2022-09-12T15:23:46;22.80;94.20
1948;DHT22;974;52.400;9.818;2022-09-12T15:26:15;22.80;94.30
1948;DHT22;974;52.400;9.818;2022-09-12T15:28:40;22.80;94.60
1948;DHT22;974;52.400;9.818;2022-09-12T15:33:55;22.70;95.50
1948;DHT22;974;52.400;9.818;2022-09-12T15:36:22;22.70;95.80
1948;DHT22;974;52.400;9.818;2022-09-12T15:38:48;22.70;95.70
1948;DHT22;974;52.400;9.818;2022-09-12T15:41:16;22.60;96.10
1948;DHT22;974;52.400;9.818;2022-09-12T15:43:42;22.60;95.70
1948;DHT22;974;52.400;9.818;2022-09-12T15:46:13;22.60;95.60
1948;DHT22;974;52.400;9.818;2022-09-12T15:48:39;22.60;95.80
1948;DHT22;974;52.400;9.818;2022-09-12T15:51:10;22.50;96.20
1948;DHT22;974;52.400;9.818;2022-09-12T15:53:36;22.40;97.00
1948;DHT22;974;52.400;9.818;2022-09-12T15:56:02;22.30;97.00
1948;DHT22;974;52.400;9.818;2022-09-12T15:58:28;22.20;97.10
1948;DHT22;974;52.400;9.818;2022-09-12T16:00:54;22.20;96.90
1948;DHT22;974;52.400;9.818;2022-09-12T16:03:29;22.10;96.50
1948;DHT22;974;52.400;9.818;2022-09-12T16:05:56;22.10;97.60
1948;DHT22;974;52.400;9.818;2022-09-12T16:08:23;22.00;97.30
1948;DHT22;974;52.400;9.818;2022-09-12T16:10:55;22.00;97.40
1948;DHT22;974;52.400;9.818;2022-09-12T16:13:23;22.10;96.80
1948;DHT22;974;52.400;9.818;2022-09-12T16:15:48;22.10;96.60
1948;DHT22;974;52.400;9.818;2022-09-12T16:18:14;22.10;96.50
1948;DHT22;974;52.400;9.818;2022-09-12T16:20:40;22.00;97.30
1948;DHT22;974;52.400;9.818;2022-09-12T16:23:07;21.90;98.10
1948;DHT22;974;52.400;9.818;2022-09-12T16:25:34;21.80;97.50
1948;DHT22;974;52.400;9.818;2022-09-12T16:27:59;21.80;97.20
1948;DHT22;974;52.400;9.818;2022-09-12T16:30:25;21.80;97.50
1948;DHT22;974;52.400;9.818;2022-09-12T16:32:51;21.70;97.20
1948;DHT22;974;52.400;9.818;2022-09-12T16:35:17;21.50;98.90
1948;DHT22;974;52.400;9.818;2022-09-12T16:37:42;21.50;99.20
1948;DHT22;974;52.400;9.818;2022-09-12T16:40:08;21.40;99.90
1948;DHT22;974;52.400;9.818;2022-09-12T16:42:34;21.30;99.90
1948;DHT22;974;52.400;9.818;2022-09-12T16:45:00;21.20;99.90
1948;DHT22;974;52.400;9.818;2022-09-12T16:47:26;21.10;99.90
1948;DHT22;974;52.400;9.818;2022-09-12T16:49:51;20.90;99.90
1948;DHT22;974;52.400;9.818;2022-09-12T16:52:17;20.80;99.90
1948;DHT22;974;52.400;9.818;2022-09-12T16:54:43;20.70;99.90
1948;DHT22;974;52.400;9.818;2022-09-12T16:57:09;20.70;99.90
1948;DHT22;974;52.400;9.818;2022-09-12T16:59:35;20.50;99.90
1948;DHT22;974;52.400;9.818;2022-09-12T17:02:01;20.40;99.90
1948;DHT22;974;52.400;9.818;2022-09-12T17:04:27;20.30;99.90
1948;DHT22;974;52.400;9.818;2022-09-12T17:06:53;20.20;99.90
1948;DHT22;974;52.400;9.818;2022-09-12T17:09:18;20.10;99.90
1948;DHT22;974;52.400;9.818;2022-09-12T17:11:45;20.00;99.90
1948;DHT22;974;52.400;9.818;2022-09-12T17:14:12;19.90;99.90
1948;DHT22;974;52.400;9.818;2022-09-12T17:16:40;19.80;99.90
1948;DHT22;974;52.400;9.818;2022-09-12T17:19:07;19.70;99.90
1948;DHT22;974;52.400;9.818;2022-09-12T17:21:36;19.60;99.90
1948;DHT22;974;52.400;9.818;2022-09-12T17:24:02;19.50;99.90
1948;DHT22;974;52.400;9.818;2022-09-12T17:26:28;19.30;99.90
1948;DHT22;974;52.400;9.818;2022-09-12T17:28:53;19.30;99.90
1948;DHT22;974;52.400;9.818;2022-09-12T17:31:19;19.10;99.90
1948;DHT22;974;52.400;9.818;2022-09-12T17:33:44;19.00;99.90
1948;DHT22;974;52.400;9.818;2022-09-12T17:36:13;18.90;99.90
1948;DHT22;974;52.400;9.818;2022-09-12T17:38:41;18.90;99.90
1948;DHT22;974;52.400;9.818;2022-09-12T17:41:16;18.80;99.90
1948;DHT22;974;52.400;9.818;2022-09-12T17:43:46;18.70;99.90
1948;DHT22;974;52.400;9.818;2022-09-12T17:46:18;18.70;99.90
1948;DHT22;974;52.400;9.818;2022-09-12T17:48:44;18.60;99.90
1948;DHT22;974;52.400;9.818;2022-09-12T17:51:11;18.40;99.90
1948;DHT22;974;52.400;9.818;2022-09-12T17:53:41;18.30;99.90
1948;DHT22;974;52.400;9.818;2022-09-12T17:56:08;18.30;99.90
1948;DHT22;974;52.400;9.818;2022-09-12T17:58:34;18.10;99.90
1948;DHT22;974;52.400;9.818;2022-09-12T18:01:04;18.00;99.90
1948;DHT22;974;52.400;9.818;2022-09-12T18:03:52;18.00;99.90
1948;DHT22;974;52.400;9.818;2022-09-12T18:06:19;17.80;99.90
1948;DHT22;974;52.400;9.818;2022-09-12T18:08:44;17.80;99.90
1948;DHT22;974;52.400;9.818;2022-09-12T18:11:10;17.80;99.90
1948;DHT22;974;52.400;9.818;2022-09-12T18:13:35;17.70;99.90
1948;DHT22;974;52.400;9.818;2022-09-12T18:16:08;17.60;99.90
1948;DHT22;974;52.400;9.818;2022-09-12T18:18:35;17.50;99.90
1948;DHT22;974;52.400;9.818;2022-09-12T18:21:02;17.50;99.90
1948;DHT22;974;52.400;9.818;2022-09-12T18:23:28;17.30;99.90